MyTimes logo

TIMES

Webb Imagery

13/02/2010
Cowes Classic
500m Swim / 4.0km Run - Local Residents

(Click on competitor name to view personalised results)

Name
Race #
Category
Team Name
Time
(h:mm:ss)
Avg Speed
km/hr
OAll
Place
Cat
Place
ROWE Mark#220LocalSenior Male0:20:48"13.0 " 11
ROCOTAS Jonathon#851LocalTeam0:21:55"12.3 " 21
PLUCK Neil#820LocalTeam0:22:56"11.8 " 32
PLANT Luke#210LocalSenior Male0:23:01"11.7 " 42
ROLLAND Thierry#41Local40-49 Male0:23:33"11.5 " 51
VERNON Beau#852LocalTeam0:23:34"11.5 " 63
FLEISNER Rob#61Local50+ Male0:23:34"11.5 " 71
KAYE-HELMOT Georgia#824LocalTeam0:23:40"11.4 " 84
VERNON Zak#850LocalTeam0:23:46"11.4 " 95
SMITH James#837LocalTeam0:24:03"11.2 " 106
BILL Greg#80Local40-49 Male0:24:07"11.2 " 112
DAVIE Warren#818LocalTeam0:24:25"11.1 " 127
BENNETT James#83LocalJunior Male0:24:28"11.0 " 131
JONES Matthew#826LocalTeam0:24:33"11.0 " 148
DICKSON Jordyn#822LocalTeam0:24:36"11.0 " 159
CORBETT James#71Local40-49 Male0:25:11"10.7 " 163
HUTCHINSON Warwick#44Local40-49 Male0:25:16"10.7 " 174
O'DONOHUE Mark#839LocalTeam0:25:21"10.7 " 1810
HOMER Ivan#34Local40-49 Male0:25:29"10.6 " 195
CONNELL Chelsea#840LocalTeam0:25:32"10.6 " 2011
MILLER Michael#853LocalTeam0:25:52"10.4 " 2112
BUTT Chloe#201LocalSenior Female0:25:56"10.4 " 221
MANTEIT Michael#46LocalJunior Male0:26:20"10.3 " 232
BEAUMONT Brett#856LocalTeam0:26:42"10.1 " 2413
JUDD Alex#57LocalJunior Male0:26:47"10.1 " 253
HUMBERT Cara#821LocalTeam0:27:23"9.9 " 2614
BOND Marcus#264LocalSenior Male0:27:26"9.8 " 273
ALDERSON Allan#82Local50+ Male0:27:29"9.8 " 282
HARRIS Michelle#260LocalSenior Female0:27:36"9.8 " 292
SULLIVAN Matt#12LocalJunior Male0:27:36"9.8 " 304
MC COY Tony#849LocalTeam0:27:41"9.8 " 3115
CROWE Damien#65Local50+ Male0:27:50"9.7 " 323
MATTHEWS Jack#204LocalSenior Male0:27:53"9.7 " 334
JOHNSTON Molly#854LocalTeam0:28:35"9.4 " 3416
DAVIE Krystal#29LocalJunior Female0:28:45"9.4 " 351
BEANLAND Matt#804LocalTeam0:28:50"9.4 " 3617
DAVIE Angie#28Local40-49 Female0:28:52"9.4 " 371
JUDD Gary#59Local50+ Male0:29:15"9.2 " 384
DU PLESSIS Georgia#855LocalTeam0:29:22"9.2 " 3918
PETERSEN Marnie#5LocalJunior Female0:29:23"9.2 " 402
PAYNE Lani#833LocalTeam0:29:31"9.1 " 4119
CROWE Suzie#271LocalSenior Female0:29:38"9.1 " 423
FOOTE Isabella#832LocalTeam0:30:06"9.0 " 4320
HARRIS Simon#261LocalSenior Male0:30:17"8.9 " 445
TYRELL Sarah#846LocalTeam0:30:21"8.9 " 4521
COX Bill#819LocalTeam0:30:26"8.9 " 4622
CZEMPINSKI Bree#831LocalTeam0:30:33"8.8 " 4723
CAIN Greg#36Local50+ Male0:30:39"8.8 " 485
MATTHEWS Robert#6Local50+ Male0:30:51"8.8 " 496
ALEXANDER Gregory#249LocalSenior Male0:31:04"8.7 " 506
MANNING Simon#11Local40-49 Male0:31:15"8.6 " 516
COLLISON Natasha#296LocalSenior Female0:31:26"8.6 " 524
BELL Ashlea#63LocalJunior Male0:31:40"8.5 " 535
HIBBLE Jenny#3Local50+ Female0:32:10"8.4 " 541
BAILEY Annie#20Local50+ Female0:32:11"8.4 " 552
CAMERON Jane#58Local40-49 Female0:32:29"8.3 " 562
CHASTON Pete#45Local50+ Male0:33:04"8.2 " 577
FITZGERALD Rick#43Local50+ Male0:34:12"7.9 " 588
MARSHALL Sarah#237LocalSenior Female0:34:26"7.8 " 595
CARTER Dean#13Local50+ Male0:35:59"7.5 " 609
DALLINGER Brian#66Local50+ Male0:37:01"7.3 " 6110
EGAN Holly#835LocalTeam0:37:32"7.2 " 6224
TAYLOR Kevin#283LocalSenior Male0:37:44"7.2 " 637
LEECH David#217LocalSenior Male0:38:58"6.9 " 648